PAJZ

Details ICAO PAJZ (KGK)
Name Koliganek
Region USA (Alaska)
Timezone America/Anchorage (UTC-8.0)
Plans Departing 2
Arriving 1
Stats Elevation 269 ft / 82 m (AMSL)
Location 59.726641° -157.259472°
Runways 1
Magnetic Variation 13.198° E
Sunrise 2018-05-24 13:35:07 UTC / 2018-05-24 05:35:07 Local
Sunset 2018-05-25 07:19:35 UTC / 2018-05-24 23:19:35 Local
Advertisement - Login to hide

Runways

ID Width Length Bearing (true) Bearing (mag) Surface Threshold Offset Overrun Length
09 75 ft / 23 m 2,990 ft / 911 m 105.89° 92.69° Gravel 0 ft / 0 m 0 ft / 0 m
27 75 ft / 23 m 2,990 ft / 911 m 285.91° 272.71° Gravel 0 ft / 0 m 0 ft / 0 m

Map

Weather


0- 5 10 15 20 25 30 35+ Temperature / ° C

Clouds and Precipitation
Forecast for 2018-05-24 18:00 UTC. Updated 5 hours ago

Ground ~20,000 ft ~40,000 ft Winds

METAR

PAJZ 242156Z AUTO 13020KT 6SM HZ BKN042 12/02 A2973 RMK AO2 PK WND 13026/2151 SLP074 T01170022 $

TAF

Not found

Frequencies

Recorded 118.52 MHz AWOS 3
Approach 132.75 MHz ANCHORAGE CNTR
Unicom 122.90 MHz CTAF
Warning: Do not use this data for real-world aviation or navigation. No guarantee of current accuracy is given.